sensor_id;sensor_type;location;lat;lon;timestamp;P1;durP1;ratioP1;P2;durP2;ratioP2
65189;SDS011;51777;53.570;9.984;2022-12-10T00:02:07;44.72;;;17.77;;
65189;SDS011;51777;53.570;9.984;2022-12-10T00:04:32;55.65;;;22.13;;
65189;SDS011;51777;53.570;9.984;2022-12-10T00:06:58;46.42;;;19.38;;
65189;SDS011;51777;53.570;9.984;2022-12-10T00:09:23;36.08;;;12.80;;
65189;SDS011;51777;53.570;9.984;2022-12-10T00:11:49;33.08;;;13.52;;
65189;SDS011;51777;53.570;9.984;2022-12-10T00:14:14;50.35;;;21.60;;
65189;SDS011;51777;53.570;9.984;2022-12-10T00:16:40;48.15;;;18.13;;
65189;SDS011;51777;53.570;9.984;2022-12-10T00:19:06;60.10;;;22.30;;
65189;SDS011;51777;53.570;9.984;2022-12-10T00:21:33;49.53;;;19.27;;
65189;SDS011;51777;53.570;9.984;2022-12-10T00:24:00;44.17;;;17.20;;
65189;SDS011;51777;53.570;9.984;2022-12-10T00:26:30;49.45;;;20.50;;
65189;SDS011;51777;53.570;9.984;2022-12-10T00:28:59;41.45;;;17.27;;
65189;SDS011;51777;53.570;9.984;2022-12-10T00:31:26;51.00;;;20.10;;
65189;SDS011;51777;53.570;9.984;2022-12-10T00:33:54;50.80;;;19.13;;
65189;SDS011;51777;53.570;9.984;2022-12-10T00:36:21;48.88;;;20.52;;
65189;SDS011;51777;53.570;9.984;2022-12-10T00:38:49;56.97;;;21.15;;
65189;SDS011;51777;53.570;9.984;2022-12-10T00:41:15;45.45;;;18.63;;
65189;SDS011;51777;53.570;9.984;2022-12-10T00:43:41;52.67;;;19.30;;
65189;SDS011;51777;53.570;9.984;2022-12-10T00:46:07;44.97;;;18.80;;
65189;SDS011;51777;53.570;9.984;2022-12-10T00:48:33;42.03;;;17.27;;
65189;SDS011;51777;53.570;9.984;2022-12-10T00:51:12;47.80;;;19.02;;
65189;SDS011;51777;53.570;9.984;2022-12-10T00:53:40;44.22;;;18.48;;
65189;SDS011;51777;53.570;9.984;2022-12-10T00:56:07;45.67;;;18.70;;
65189;SDS011;51777;53.570;9.984;2022-12-10T00:58:34;44.25;;;17.95;;
65189;SDS011;51777;53.570;9.984;2022-12-10T01:01:11;46.50;;;17.92;;
65189;SDS011;51777;53.570;9.984;2022-12-10T01:03:52;42.20;;;17.77;;
65189;SDS011;51777;53.570;9.984;2022-12-10T01:06:23;32.92;;;14.30;;
65189;SDS011;51777;53.570;9.984;2022-12-10T01:08:52;39.03;;;16.40;;
65189;SDS011;51777;53.570;9.984;2022-12-10T01:11:20;33.03;;;13.93;;
65189;SDS011;51777;53.570;9.984;2022-12-10T01:13:46;33.60;;;14.13;;
65189;SDS011;51777;53.570;9.984;2022-12-10T01:16:14;36.67;;;15.45;;
65189;SDS011;51777;53.570;9.984;2022-12-10T01:18:41;30.35;;;12.68;;
65189;SDS011;51777;53.570;9.984;2022-12-10T01:21:07;34.38;;;14.50;;
65189;SDS011;51777;53.570;9.984;2022-12-10T01:23:38;22.65;;;9.00;;
65189;SDS011;51777;53.570;9.984;2022-12-10T01:26:05;25.77;;;11.18;;
65189;SDS011;51777;53.570;9.984;2022-12-10T01:28:34;38.88;;;16.10;;
65189;SDS011;51777;53.570;9.984;2022-12-10T01:31:04;36.00;;;15.77;;
65189;SDS011;51777;53.570;9.984;2022-12-10T01:33:45;34.30;;;15.55;;
65189;SDS011;51777;53.570;9.984;2022-12-10T01:36:18;31.10;;;14.38;;
65189;SDS011;51777;53.570;9.984;2022-12-10T01:38:45;15.43;;;8.05;;
65189;SDS011;51777;53.570;9.984;2022-12-10T01:41:19;35.80;;;14.65;;
65189;SDS011;51777;53.570;9.984;2022-12-10T01:46:27;30.65;;;13.93;;
65189;SDS011;51777;53.570;9.984;2022-12-10T01:48:54;29.02;;;12.35;;
65189;SDS011;51777;53.570;9.984;2022-12-10T01:51:21;36.70;;;14.75;;
65189;SDS011;51777;53.570;9.984;2022-12-10T01:53:48;29.30;;;13.38;;
65189;SDS011;51777;53.570;9.984;2022-12-10T01:56:15;27.80;;;13.00;;
65189;SDS011;51777;53.570;9.984;2022-12-10T01:58:42;26.73;;;13.23;;
65189;SDS011;51777;53.570;9.984;2022-12-10T02:01:10;29.73;;;12.85;;
65189;SDS011;51777;53.570;9.984;2022-12-10T02:03:51;29.00;;;13.43;;
65189;SDS011;51777;53.570;9.984;2022-12-10T02:08:54;26.92;;;12.55;;
65189;SDS011;51777;53.570;9.984;2022-12-10T02:11:40;23.58;;;10.55;;
65189;SDS011;51777;53.570;9.984;2022-12-10T02:14:20;22.27;;;10.90;;
65189;SDS011;51777;53.570;9.984;2022-12-10T02:22:18;24.50;;;10.10;;
65189;SDS011;51777;53.570;9.984;2022-12-10T02:24:44;23.08;;;10.95;;
65189;SDS011;51777;53.570;9.984;2022-12-10T02:29:38;22.05;;;10.68;;
65189;SDS011;51777;53.570;9.984;2022-12-10T02:32:13;19.38;;;8.63;;
65189;SDS011;51777;53.570;9.984;2022-12-10T02:34:45;25.17;;;10.95;;
65189;SDS011;51777;53.570;9.984;2022-12-10T02:37:16;16.92;;;7.57;;
65189;SDS011;51777;53.570;9.984;2022-12-10T02:39:46;27.75;;;12.02;;
65189;SDS011;51777;53.570;9.984;2022-12-10T02:42:15;25.40;;;12.18;;
65189;SDS011;51777;53.570;9.984;2022-12-10T02:44:42;29.67;;;13.45;;
65189;SDS011;51777;53.570;9.984;2022-12-10T02:47:09;27.80;;;13.00;;
65189;SDS011;51777;53.570;9.984;2022-12-10T02:49:37;21.63;;;10.73;;
65189;SDS011;51777;53.570;9.984;2022-12-10T02:52:06;27.00;;;12.15;;
65189;SDS011;51777;53.570;9.984;2022-12-10T03:00:02;26.92;;;11.57;;
65189;SDS011;51777;53.570;9.984;2022-12-10T03:05:09;21.88;;;10.80;;
65189;SDS011;51777;53.570;9.984;2022-12-10T03:07:41;19.45;;;10.13;;
65189;SDS011;51777;53.570;9.984;2022-12-10T03:13:23;24.73;;;10.15;;
65189;SDS011;51777;53.570;9.984;2022-12-10T03:15:54;22.65;;;9.93;;
65189;SDS011;51777;53.570;9.984;2022-12-10T03:18:21;22.30;;;10.30;;
65189;SDS011;51777;53.570;9.984;2022-12-10T03:20:50;22.45;;;10.27;;
65189;SDS011;51777;53.570;9.984;2022-12-10T03:23:19;21.42;;;10.80;;
65189;SDS011;51777;53.570;9.984;2022-12-10T03:25:46;19.88;;;10.02;;
65189;SDS011;51777;53.570;9.984;2022-12-10T03:28:14;16.15;;;8.73;;
65189;SDS011;51777;53.570;9.984;2022-12-10T03:30:40;18.17;;;9.27;;
65189;SDS011;51777;53.570;9.984;2022-12-10T03:33:08;19.48;;;10.07;;
65189;SDS011;51777;53.570;9.984;2022-12-10T03:35:34;14.13;;;7.95;;
65189;SDS011;51777;53.570;9.984;2022-12-10T03:38:00;15.75;;;8.20;;
65189;SDS011;51777;53.570;9.984;2022-12-10T03:40:26;18.35;;;8.82;;
65189;SDS011;51777;53.570;9.984;2022-12-10T03:42:52;17.42;;;9.18;;
65189;SDS011;51777;53.570;9.984;2022-12-10T03:45:17;18.70;;;9.02;;
65189;SDS011;51777;53.570;9.984;2022-12-10T03:47:42;13.73;;;7.70;;
65189;SDS011;51777;53.570;9.984;2022-12-10T03:50:09;20.90;;;10.10;;
65189;SDS011;51777;53.570;9.984;2022-12-10T03:52:34;17.75;;;8.48;;
65189;SDS011;51777;53.570;9.984;2022-12-10T03:55:00;17.17;;;9.35;;
65189;SDS011;51777;53.570;9.984;2022-12-10T03:57:26;17.92;;;8.13;;
65189;SDS011;51777;53.570;9.984;2022-12-10T03:59:52;15.85;;;9.02;;
65189;SDS011;51777;53.570;9.984;2022-12-10T04:02:18;11.30;;;6.43;;
65189;SDS011;51777;53.570;9.984;2022-12-10T04:04:43;16.02;;;8.43;;
65189;SDS011;51777;53.570;9.984;2022-12-10T04:07:08;14.45;;;7.63;;
65189;SDS011;51777;53.570;9.984;2022-12-10T04:09:34;12.88;;;7.53;;
65189;SDS011;51777;53.570;9.984;2022-12-10T04:11:59;13.73;;;7.95;;
65189;SDS011;51777;53.570;9.984;2022-12-10T04:14:25;13.80;;;7.65;;
65189;SDS011;51777;53.570;9.984;2022-12-10T04:17:10;15.75;;;8.13;;
65189;SDS011;51777;53.570;9.984;2022-12-10T04:19:35;15.25;;;8.75;;
65189;SDS011;51777;53.570;9.984;2022-12-10T04:22:02;15.23;;;7.78;;
65189;SDS011;51777;53.570;9.984;2022-12-10T04:24:46;14.95;;;8.38;;
65189;SDS011;51777;53.570;9.984;2022-12-10T04:27:31;13.55;;;7.15;;
65189;SDS011;51777;53.570;9.984;2022-12-10T04:30:00;17.05;;;8.40;;
65189;SDS011;51777;53.570;9.984;2022-12-10T04:32:27;14.70;;;8.55;;
65189;SDS011;51777;53.570;9.984;2022-12-10T04:34:54;14.85;;;9.05;;
65189;SDS011;51777;53.570;9.984;2022-12-10T04:37:20;16.98;;;8.40;;
65189;SDS011;51777;53.570;9.984;2022-12-10T04:39:45;16.92;;;8.65;;
65189;SDS011;51777;53.570;9.984;2022-12-10T04:42:11;18.30;;;9.40;;
65189;SDS011;51777;53.570;9.984;2022-12-10T04:44:37;16.27;;;8.30;;
65189;SDS011;51777;53.570;9.984;2022-12-10T04:47:03;17.15;;;8.75;;
65189;SDS011;51777;53.570;9.984;2022-12-10T04:49:30;14.63;;;8.68;;
65189;SDS011;51777;53.570;9.984;2022-12-10T04:51:55;15.35;;;8.25;;
65189;SDS011;51777;53.570;9.984;2022-12-10T04:54:21;15.18;;;8.30;;
65189;SDS011;51777;53.570;9.984;2022-12-10T04:56:46;11.68;;;5.82;;
65189;SDS011;51777;53.570;9.984;2022-12-10T04:59:12;14.52;;;7.40;;
65189;SDS011;51777;53.570;9.984;2022-12-10T05:01:38;19.05;;;9.57;;
65189;SDS011;51777;53.570;9.984;2022-12-10T05:04:07;14.38;;;7.85;;
65189;SDS011;51777;53.570;9.984;2022-12-10T05:06:34;11.50;;;6.50;;
65189;SDS011;51777;53.570;9.984;2022-12-10T05:09:00;14.98;;;7.38;;
65189;SDS011;51777;53.570;9.984;2022-12-10T05:11:27;14.27;;;7.22;;
65189;SDS011;51777;53.570;9.984;2022-12-10T05:13:54;12.30;;;7.18;;
65189;SDS011;51777;53.570;9.984;2022-12-10T05:16:21;12.35;;;7.03;;
65189;SDS011;51777;53.570;9.984;2022-12-10T05:18:47;13.93;;;7.78;;
65189;SDS011;51777;53.570;9.984;2022-12-10T05:21:14;30.17;;;11.95;;
65189;SDS011;51777;53.570;9.984;2022-12-10T05:23:42;19.88;;;9.95;;
65189;SDS011;51777;53.570;9.984;2022-12-10T05:26:10;41.33;;;16.85;;
65189;SDS011;51777;53.570;9.984;2022-12-10T05:28:37;15.50;;;8.60;;
65189;SDS011;51777;53.570;9.984;2022-12-10T05:31:04;15.85;;;7.97;;
65189;SDS011;51777;53.570;9.984;2022-12-10T05:33:29;15.30;;;8.38;;
65189;SDS011;51777;53.570;9.984;2022-12-10T05:36:02;14.63;;;8.75;;
65189;SDS011;51777;53.570;9.984;2022-12-10T05:38:29;18.15;;;9.52;;
65189;SDS011;51777;53.570;9.984;2022-12-10T05:41:05;15.85;;;9.05;;
65189;SDS011;51777;53.570;9.984;2022-12-10T05:43:33;17.48;;;9.00;;
65189;SDS011;51777;53.570;9.984;2022-12-10T05:46:03;18.38;;;9.07;;
65189;SDS011;51777;53.570;9.984;2022-12-10T05:48:30;15.68;;;8.55;;
65189;SDS011;51777;53.570;9.984;2022-12-10T05:50:57;15.73;;;8.48;;
65189;SDS011;51777;53.570;9.984;2022-12-10T05:53:23;14.30;;;8.48;;
65189;SDS011;51777;53.570;9.984;2022-12-10T05:55:48;17.08;;;9.15;;
65189;SDS011;51777;53.570;9.984;2022-12-10T05:58:14;12.77;;;7.88;;
65189;SDS011;51777;53.570;9.984;2022-12-10T06:00:40;12.88;;;7.88;;
65189;SDS011;51777;53.570;9.984;2022-12-10T06:03:06;14.68;;;8.07;;
65189;SDS011;51777;53.570;9.984;2022-12-10T06:05:39;17.42;;;8.98;;
65189;SDS011;51777;53.570;9.984;2022-12-10T06:08:05;14.43;;;8.65;;
65189;SDS011;51777;53.570;9.984;2022-12-10T06:10:33;14.55;;;8.80;;
65189;SDS011;51777;53.570;9.984;2022-12-10T06:12:59;16.13;;;9.05;;
65189;SDS011;51777;53.570;9.984;2022-12-10T06:15:25;15.90;;;8.07;;
65189;SDS011;51777;53.570;9.984;2022-12-10T06:17:50;12.75;;;7.28;;
65189;SDS011;51777;53.570;9.984;2022-12-10T06:20:16;7.03;;;3.95;;
65189;SDS011;51777;53.570;9.984;2022-12-10T06:22:41;14.13;;;8.23;;
65189;SDS011;51777;53.570;9.984;2022-12-10T06:25:06;14.43;;;7.50;;
65189;SDS011;51777;53.570;9.984;2022-12-10T06:27:32;13.77;;;6.30;;
65189;SDS011;51777;53.570;9.984;2022-12-10T06:29:58;16.20;;;7.07;;
65189;SDS011;51777;53.570;9.984;2022-12-10T06:32:23;12.20;;;7.15;;
65189;SDS011;51777;53.570;9.984;2022-12-10T06:34:49;15.10;;;6.97;;
65189;SDS011;51777;53.570;9.984;2022-12-10T06:37:14;14.77;;;7.47;;
65189;SDS011;51777;53.570;9.984;2022-12-10T06:39:40;17.30;;;8.13;;
65189;SDS011;51777;53.570;9.984;2022-12-10T06:42:05;18.45;;;7.22;;
65189;SDS011;51777;53.570;9.984;2022-12-10T06:44:31;16.65;;;7.28;;
65189;SDS011;51777;53.570;9.984;2022-12-10T06:46:56;12.45;;;7.60;;
65189;SDS011;51777;53.570;9.984;2022-12-10T06:49:22;16.00;;;8.77;;
65189;SDS011;51777;53.570;9.984;2022-12-10T06:51:47;23.73;;;8.45;;
65189;SDS011;51777;53.570;9.984;2022-12-10T06:54:13;22.40;;;7.63;;
65189;SDS011;51777;53.570;9.984;2022-12-10T06:56:38;20.38;;;8.32;;
65189;SDS011;51777;53.570;9.984;2022-12-10T06:59:04;14.25;;;7.90;;
65189;SDS011;51777;53.570;9.984;2022-12-10T07:01:31;17.45;;;8.27;;
65189;SDS011;51777;53.570;9.984;2022-12-10T07:03:57;14.48;;;7.88;;
65189;SDS011;51777;53.570;9.984;2022-12-10T07:06:23;19.92;;;7.60;;
65189;SDS011;51777;53.570;9.984;2022-12-10T07:08:49;14.23;;;7.60;;
65189;SDS011;51777;53.570;9.984;2022-12-10T07:11:16;15.75;;;8.10;;
65189;SDS011;51777;53.570;9.984;2022-12-10T07:13:43;12.13;;;7.72;;
65189;SDS011;51777;53.570;9.984;2022-12-10T07:16:18;11.10;;;7.30;;
65189;SDS011;51777;53.570;9.984;2022-12-10T07:18:46;13.48;;;8.80;;
65189;SDS011;51777;53.570;9.984;2022-12-10T07:21:16;13.98;;;7.68;;
65189;SDS011;51777;53.570;9.984;2022-12-10T07:23:44;23.20;;;9.07;;
65189;SDS011;51777;53.570;9.984;2022-12-10T07:26:10;19.90;;;6.75;;
65189;SDS011;51777;53.570;9.984;2022-12-10T07:28:35;26.92;;;8.27;;
65189;SDS011;51777;53.570;9.984;2022-12-10T07:31:02;20.05;;;7.68;;
65189;SDS011;51777;53.570;9.984;2022-12-10T07:33:31;28.02;;;9.50;;
65189;SDS011;51777;53.570;9.984;2022-12-10T07:35:57;21.65;;;8.20;;
65189;SDS011;51777;53.570;9.984;2022-12-10T07:38:23;19.15;;;8.82;;
65189;SDS011;51777;53.570;9.984;2022-12-10T07:40:49;12.07;;;7.03;;
65189;SDS011;51777;53.570;9.984;2022-12-10T07:43:15;15.90;;;7.63;;
65189;SDS011;51777;53.570;9.984;2022-12-10T07:45:40;12.02;;;7.38;;
65189;SDS011;51777;53.570;9.984;2022-12-10T07:48:05;27.58;;;9.23;;
65189;SDS011;51777;53.570;9.984;2022-12-10T07:50:31;12.80;;;7.88;;
65189;SDS011;51777;53.570;9.984;2022-12-10T07:52:56;15.52;;;8.70;;
65189;SDS011;51777;53.570;9.984;2022-12-10T07:55:21;20.00;;;8.70;;
65189;SDS011;51777;53.570;9.984;2022-12-10T07:57:47;15.65;;;8.38;;
65189;SDS011;51777;53.570;9.984;2022-12-10T08:00:12;13.35;;;9.20;;
65189;SDS011;51777;53.570;9.984;2022-12-10T08:02:38;15.05;;;8.98;;
65189;SDS011;51777;53.570;9.984;2022-12-10T08:05:03;15.80;;;9.55;;
65189;SDS011;51777;53.570;9.984;2022-12-10T08:07:32;16.40;;;8.70;;
65189;SDS011;51777;53.570;9.984;2022-12-10T08:09:57;15.85;;;8.98;;
65189;SDS011;51777;53.570;9.984;2022-12-10T08:12:23;11.68;;;7.45;;
65189;SDS011;51777;53.570;9.984;2022-12-10T08:14:48;18.52;;;9.30;;
65189;SDS011;51777;53.570;9.984;2022-12-10T08:17:13;14.73;;;8.68;;
65189;SDS011;51777;53.570;9.984;2022-12-10T08:19:39;14.80;;;8.13;;
65189;SDS011;51777;53.570;9.984;2022-12-10T08:22:04;16.15;;;8.52;;
65189;SDS011;51777;53.570;9.984;2022-12-10T08:24:30;15.15;;;8.10;;
65189;SDS011;51777;53.570;9.984;2022-12-10T08:26:55;16.92;;;8.60;;
65189;SDS011;51777;53.570;9.984;2022-12-10T08:29:21;14.48;;;8.30;;
65189;SDS011;51777;53.570;9.984;2022-12-10T08:31:46;16.27;;;8.25;;
65189;SDS011;51777;53.570;9.984;2022-12-10T08:34:15;16.45;;;7.40;;
65189;SDS011;51777;53.570;9.984;2022-12-10T08:36:42;12.85;;;7.93;;
65189;SDS011;51777;53.570;9.984;2022-12-10T08:39:08;12.95;;;8.30;;
65189;SDS011;51777;53.570;9.984;2022-12-10T08:41:35;15.68;;;9.20;;
65189;SDS011;51777;53.570;9.984;2022-12-10T08:44:01;15.85;;;8.95;;
65189;SDS011;51777;53.570;9.984;2022-12-10T08:46:26;11.27;;;7.65;;
65189;SDS011;51777;53.570;9.984;2022-12-10T08:48:53;13.85;;;8.07;;
65189;SDS011;51777;53.570;9.984;2022-12-10T08:51:19;14.63;;;7.97;;
65189;SDS011;51777;53.570;9.984;2022-12-10T08:53:45;20.45;;;8.30;;
65189;SDS011;51777;53.570;9.984;2022-12-10T08:56:11;15.23;;;8.80;;
65189;SDS011;51777;53.570;9.984;2022-12-10T08:58:37;15.93;;;9.23;;
65189;SDS011;51777;53.570;9.984;2022-12-10T09:01:09;14.45;;;8.32;;
65189;SDS011;51777;53.570;9.984;2022-12-10T09:03:36;14.90;;;9.32;;
65189;SDS011;51777;53.570;9.984;2022-12-10T09:06:06;14.60;;;9.10;;
65189;SDS011;51777;53.570;9.984;2022-12-10T09:11:09;12.18;;;8.20;;
65189;SDS011;51777;53.570;9.984;2022-12-10T09:13:36;15.15;;;8.65;;
65189;SDS011;51777;53.570;9.984;2022-12-10T09:16:02;21.60;;;9.73;;
65189;SDS011;51777;53.570;9.984;2022-12-10T09:18:27;15.43;;;8.93;;
65189;SDS011;51777;53.570;9.984;2022-12-10T09:20:53;19.02;;;10.32;;
65189;SDS011;51777;53.570;9.984;2022-12-10T09:23:18;31.55;;;9.90;;
65189;SDS011;51777;53.570;9.984;2022-12-10T09:25:43;33.25;;;8.95;;
65189;SDS011;51777;53.570;9.984;2022-12-10T09:28:09;25.88;;;9.95;;
65189;SDS011;51777;53.570;9.984;2022-12-10T09:30:34;29.65;;;9.85;;
65189;SDS011;51777;53.570;9.984;2022-12-10T09:32:59;38.33;;;10.48;;
65189;SDS011;51777;53.570;9.984;2022-12-10T09:35:25;19.77;;;10.20;;
65189;SDS011;51777;53.570;9.984;2022-12-10T09:37:50;19.67;;;9.50;;
65189;SDS011;51777;53.570;9.984;2022-12-10T09:40:16;17.48;;;9.55;;
65189;SDS011;51777;53.570;9.984;2022-12-10T09:42:51;15.85;;;10.23;;
65189;SDS011;51777;53.570;9.984;2022-12-10T09:45:32;13.32;;;8.98;;
65189;SDS011;51777;53.570;9.984;2022-12-10T09:53:30;10.50;;;7.00;;
65189;SDS011;51777;53.570;9.984;2022-12-10T09:55:57;13.10;;;8.52;;
65189;SDS011;51777;53.570;9.984;2022-12-10T09:58:24;12.07;;;8.25;;
65189;SDS011;51777;53.570;9.984;2022-12-10T10:00:54;13.70;;;8.80;;
65189;SDS011;51777;53.570;9.984;2022-12-10T10:03:23;13.13;;;8.75;;
65189;SDS011;51777;53.570;9.984;2022-12-10T10:05:49;13.73;;;8.98;;
65189;SDS011;51777;53.570;9.984;2022-12-10T10:10:57;12.52;;;8.15;;
65189;SDS011;51777;53.570;9.984;2022-12-10T10:13:26;13.98;;;8.02;;
65189;SDS011;51777;53.570;9.984;2022-12-10T10:15:54;17.75;;;9.18;;
65189;SDS011;51777;53.570;9.984;2022-12-10T10:18:36;14.73;;;8.73;;
65189;SDS011;51777;53.570;9.984;2022-12-10T10:21:07;14.50;;;8.15;;
65189;SDS011;51777;53.570;9.984;2022-12-10T10:23:42;15.63;;;8.00;;
65189;SDS011;51777;53.570;9.984;2022-12-10T10:26:09;14.70;;;9.65;;
65189;SDS011;51777;53.570;9.984;2022-12-10T10:28:35;13.00;;;8.45;;
65189;SDS011;51777;53.570;9.984;2022-12-10T10:31:02;24.85;;;8.88;;
65189;SDS011;51777;53.570;9.984;2022-12-10T10:33:27;19.88;;;9.02;;
65189;SDS011;51777;53.570;9.984;2022-12-10T10:35:54;18.65;;;9.52;;
65189;SDS011;51777;53.570;9.984;2022-12-10T10:38:24;12.63;;;6.60;;
65189;SDS011;51777;53.570;9.984;2022-12-10T10:40:56;17.23;;;8.00;;
65189;SDS011;51777;53.570;9.984;2022-12-10T10:43:25;11.88;;;7.50;;
65189;SDS011;51777;53.570;9.984;2022-12-10T10:48:30;14.32;;;8.43;;
65189;SDS011;51777;53.570;9.984;2022-12-10T10:51:06;14.68;;;8.35;;
65189;SDS011;51777;53.570;9.984;2022-12-10T10:53:43;13.07;;;8.18;;
65189;SDS011;51777;53.570;9.984;2022-12-10T11:01:45;12.07;;;8.20;;
65189;SDS011;51777;53.570;9.984;2022-12-10T11:04:13;14.88;;;9.05;;
65189;SDS011;51777;53.570;9.984;2022-12-10T11:06:41;16.25;;;9.05;;
65189;SDS011;51777;53.570;9.984;2022-12-10T11:09:13;13.80;;;8.77;;
65189;SDS011;51777;53.570;9.984;2022-12-10T11:11:49;9.88;;;6.68;;
65189;SDS011;51777;53.570;9.984;2022-12-10T11:14:24;10.80;;;7.70;;
65189;SDS011;51777;53.570;9.984;2022-12-10T11:17:03;16.80;;;8.00;;
65189;SDS011;51777;53.570;9.984;2022-12-10T11:19:41;21.73;;;8.95;;
65189;SDS011;51777;53.570;9.984;2022-12-10T11:22:16;18.48;;;8.98;;
65189;SDS011;51777;53.570;9.984;2022-12-10T11:24:45;17.80;;;7.68;;
65189;SDS011;51777;53.570;9.984;2022-12-10T11:27:13;10.43;;;7.57;;
65189;SDS011;51777;53.570;9.984;2022-12-10T11:38:50;12.32;;;8.38;;
65189;SDS011;51777;53.570;9.984;2022-12-10T11:41:20;17.40;;;8.30;;
65189;SDS011;51777;53.570;9.984;2022-12-10T11:44:08;13.68;;;9.13;;
65189;SDS011;51777;53.570;9.984;2022-12-10T11:46:54;19.67;;;9.23;;
65189;SDS011;51777;53.570;9.984;2022-12-10T11:52:35;18.73;;;9.32;;
65189;SDS011;51777;53.570;9.984;2022-12-10T12:01:20;12.98;;;8.57;;
65189;SDS011;51777;53.570;9.984;2022-12-10T12:03:52;19.13;;;9.18;;
65189;SDS011;51777;53.570;9.984;2022-12-10T12:12:10;20.50;;;11.25;;
65189;SDS011;51777;53.570;9.984;2022-12-10T12:14:51;13.77;;;8.50;;
65189;SDS011;51777;53.570;9.984;2022-12-10T12:17:23;15.07;;;9.45;;
65189;SDS011;51777;53.570;9.984;2022-12-10T12:19:59;14.65;;;9.13;;
65189;SDS011;51777;53.570;9.984;2022-12-10T12:22:29;14.57;;;9.02;;
65189;SDS011;51777;53.570;9.984;2022-12-10T12:25:00;16.13;;;10.02;;
65189;SDS011;51777;53.570;9.984;2022-12-10T12:27:36;16.75;;;10.60;;
65189;SDS011;51777;53.570;9.984;2022-12-10T12:30:06;15.43;;;8.95;;
65189;SDS011;51777;53.570;9.984;2022-12-10T12:38:30;16.77;;;10.32;;
65189;SDS011;51777;53.570;9.984;2022-12-10T12:41:04;15.82;;;10.32;;
65189;SDS011;51777;53.570;9.984;2022-12-10T12:46:19;17.95;;;10.27;;
65189;SDS011;51777;53.570;9.984;2022-12-10T12:48:53;17.65;;;10.73;;
65189;SDS011;51777;53.570;9.984;2022-12-10T12:51:33;16.35;;;11.10;;
65189;SDS011;51777;53.570;9.984;2022-12-10T12:54:03;16.92;;;10.32;;
65189;SDS011;51777;53.570;9.984;2022-12-10T13:01:53;17.17;;;10.73;;
65189;SDS011;51777;53.570;9.984;2022-12-10T13:04:23;19.50;;;12.35;;
65189;SDS011;51777;53.570;9.984;2022-12-10T13:09:43;13.50;;;9.60;;
65189;SDS011;51777;53.570;9.984;2022-12-10T13:19:39;19.55;;;11.20;;
65189;SDS011;51777;53.570;9.984;2022-12-10T13:22:10;16.38;;;9.60;;
65189;SDS011;51777;53.570;9.984;2022-12-10T13:29:44;16.10;;;9.73;;
65189;SDS011;51777;53.570;9.984;2022-12-10T13:35:15;14.55;;;8.85;;
65189;SDS011;51777;53.570;9.984;2022-12-10T13:43:24;17.73;;;9.25;;
65189;SDS011;51777;53.570;9.984;2022-12-10T13:48:58;16.42;;;9.50;;
65189;SDS011;51777;53.570;9.984;2022-12-10T13:54:53;17.00;;;10.32;;
65189;SDS011;51777;53.570;9.984;2022-12-10T14:00:19;19.98;;;11.27;;
65189;SDS011;51777;53.570;9.984;2022-12-10T14:08:20;16.23;;;10.50;;
65189;SDS011;51777;53.570;9.984;2022-12-10T14:10:50;18.90;;;11.18;;
65189;SDS011;51777;53.570;9.984;2022-12-10T14:13:17;16.08;;;10.40;;
65189;SDS011;51777;53.570;9.984;2022-12-10T14:15:57;17.20;;;10.05;;
65189;SDS011;51777;53.570;9.984;2022-12-10T14:18:26;15.77;;;10.30;;
65189;SDS011;51777;53.570;9.984;2022-12-10T14:20:53;18.13;;;10.73;;
65189;SDS011;51777;53.570;9.984;2022-12-10T14:23:25;17.00;;;10.73;;
65189;SDS011;51777;53.570;9.984;2022-12-10T14:25:58;16.20;;;10.00;;
65189;SDS011;51777;53.570;9.984;2022-12-10T14:28:30;18.35;;;10.00;;
65189;SDS011;51777;53.570;9.984;2022-12-10T14:30:58;15.73;;;9.80;;
65189;SDS011;51777;53.570;9.984;2022-12-10T14:33:24;15.20;;;9.95;;
65189;SDS011;51777;53.570;9.984;2022-12-10T14:35:50;14.60;;;9.48;;
65189;SDS011;51777;53.570;9.984;2022-12-10T14:38:18;15.38;;;9.68;;
65189;SDS011;51777;53.570;9.984;2022-12-10T14:40:46;17.65;;;10.40;;
65189;SDS011;51777;53.570;9.984;2022-12-10T14:43:20;17.77;;;10.95;;
65189;SDS011;51777;53.570;9.984;2022-12-10T14:45:51;16.27;;;10.27;;
65189;SDS011;51777;53.570;9.984;2022-12-10T14:48:20;16.88;;;10.55;;
65189;SDS011;51777;53.570;9.984;2022-12-10T14:50:46;17.92;;;11.15;;
65189;SDS011;51777;53.570;9.984;2022-12-10T14:53:14;16.23;;;10.10;;
65189;SDS011;51777;53.570;9.984;2022-12-10T14:55:41;19.98;;;10.80;;
65189;SDS011;51777;53.570;9.984;2022-12-10T14:58:13;19.15;;;10.80;;
65189;SDS011;51777;53.570;9.984;2022-12-10T15:00:42;19.08;;;11.07;;
65189;SDS011;51777;53.570;9.984;2022-12-10T15:03:09;20.63;;;11.52;;
65189;SDS011;51777;53.570;9.984;2022-12-10T15:05:36;17.65;;;11.20;;
65189;SDS011;51777;53.570;9.984;2022-12-10T15:08:06;17.52;;;10.50;;
65189;SDS011;51777;53.570;9.984;2022-12-10T15:10:39;17.13;;;10.57;;
65189;SDS011;51777;53.570;9.984;2022-12-10T15:15:48;16.10;;;9.52;;
65189;SDS011;51777;53.570;9.984;2022-12-10T15:18:15;19.05;;;11.38;;
65189;SDS011;51777;53.570;9.984;2022-12-10T15:20:46;17.42;;;9.98;;
65189;SDS011;51777;53.570;9.984;2022-12-10T15:25:45;14.32;;;9.85;;
65189;SDS011;51777;53.570;9.984;2022-12-10T15:28:49;18.65;;;11.10;;
65189;SDS011;51777;53.570;9.984;2022-12-10T15:31:28;19.67;;;10.50;;
65189;SDS011;51777;53.570;9.984;2022-12-10T15:39:19;16.20;;;10.10;;
65189;SDS011;51777;53.570;9.984;2022-12-10T15:41:57;17.73;;;11.05;;
65189;SDS011;51777;53.570;9.984;2022-12-10T15:46:59;16.30;;;10.27;;
65189;SDS011;51777;53.570;9.984;2022-12-10T15:49:34;20.63;;;11.52;;
65189;SDS011;51777;53.570;9.984;2022-12-10T15:52:00;21.33;;;11.57;;
65189;SDS011;51777;53.570;9.984;2022-12-10T15:54:33;19.27;;;11.13;;
65189;SDS011;51777;53.570;9.984;2022-12-10T15:57:16;21.20;;;11.80;;
65189;SDS011;51777;53.570;9.984;2022-12-10T15:59:46;21.17;;;11.82;;
65189;SDS011;51777;53.570;9.984;2022-12-10T16:02:35;20.90;;;12.00;;
65189;SDS011;51777;53.570;9.984;2022-12-10T16:07:49;19.23;;;11.27;;
65189;SDS011;51777;53.570;9.984;2022-12-10T16:10:17;19.67;;;11.75;;
65189;SDS011;51777;53.570;9.984;2022-12-10T16:12:48;20.38;;;12.00;;
65189;SDS011;51777;53.570;9.984;2022-12-10T16:15:20;18.10;;;11.10;;
65189;SDS011;51777;53.570;9.984;2022-12-10T16:17:49;22.77;;;12.38;;
65189;SDS011;51777;53.570;9.984;2022-12-10T16:20:25;26.70;;;12.18;;
65189;SDS011;51777;53.570;9.984;2022-12-10T16:22:53;20.02;;;11.70;;
65189;SDS011;51777;53.570;9.984;2022-12-10T16:25:20;19.40;;;11.68;;
65189;SDS011;51777;53.570;9.984;2022-12-10T16:27:47;18.38;;;11.90;;
65189;SDS011;51777;53.570;9.984;2022-12-10T16:30:17;21.83;;;12.27;;
65189;SDS011;51777;53.570;9.984;2022-12-10T16:32:44;21.00;;;12.00;;
65189;SDS011;51777;53.570;9.984;2022-12-10T16:35:11;19.30;;;11.45;;
65189;SDS011;51777;53.570;9.984;2022-12-10T16:37:39;20.63;;;11.07;;
65189;SDS011;51777;53.570;9.984;2022-12-10T16:40:09;18.73;;;11.27;;
65189;SDS011;51777;53.570;9.984;2022-12-10T16:42:36;18.80;;;11.27;;
65189;SDS011;51777;53.570;9.984;2022-12-10T16:45:02;21.10;;;12.27;;
65189;SDS011;51777;53.570;9.984;2022-12-10T16:47:34;20.60;;;12.05;;
65189;SDS011;51777;53.570;9.984;2022-12-10T16:50:00;18.83;;;11.65;;
65189;SDS011;51777;53.570;9.984;2022-12-10T16:52:25;23.85;;;12.25;;
65189;SDS011;51777;53.570;9.984;2022-12-10T16:54:50;26.10;;;12.88;;